sensor_id;sensor_type;location;lat;lon;timestamp;P1;durP1;ratioP1;P2;durP2;ratioP2
64208;SDS011;50527;52.414;13.226;2022-10-15T00:01:41;9.50;;;4.35;;
64208;SDS011;50527;52.414;13.226;2022-10-15T00:04:07;9.48;;;4.03;;
64208;SDS011;50527;52.414;13.226;2022-10-15T00:06:32;9.30;;;4.00;;
64208;SDS011;50527;52.414;13.226;2022-10-15T00:08:58;10.38;;;4.07;;
64208;SDS011;50527;52.414;13.226;2022-10-15T00:11:25;8.77;;;4.15;;
64208;SDS011;50527;52.414;13.226;2022-10-15T00:13:55;8.95;;;3.83;;
64208;SDS011;50527;52.414;13.226;2022-10-15T00:16:23;9.02;;;4.20;;
64208;SDS011;50527;52.414;13.226;2022-10-15T00:18:50;9.98;;;4.30;;
64208;SDS011;50527;52.414;13.226;2022-10-15T00:21:17;10.65;;;4.47;;
64208;SDS011;50527;52.414;13.226;2022-10-15T00:23:43;8.65;;;4.07;;
64208;SDS011;50527;52.414;13.226;2022-10-15T00:26:11;8.32;;;3.97;;
64208;SDS011;50527;52.414;13.226;2022-10-15T00:28:42;10.88;;;4.05;;
64208;SDS011;50527;52.414;13.226;2022-10-15T00:31:08;11.15;;;3.95;;
64208;SDS011;50527;52.414;13.226;2022-10-15T00:33:36;8.23;;;3.60;;
64208;SDS011;50527;52.414;13.226;2022-10-15T00:36:04;11.10;;;3.95;;
64208;SDS011;50527;52.414;13.226;2022-10-15T00:38:32;12.05;;;4.13;;
64208;SDS011;50527;52.414;13.226;2022-10-15T00:40:58;9.50;;;3.85;;
64208;SDS011;50527;52.414;13.226;2022-10-15T00:43:41;9.57;;;4.18;;
64208;SDS011;50527;52.414;13.226;2022-10-15T00:46:26;10.82;;;4.50;;
64208;SDS011;50527;52.414;13.226;2022-10-15T00:49:17;9.95;;;3.95;;
64208;SDS011;50527;52.414;13.226;2022-10-15T00:52:07;14.52;;;3.88;;
64208;SDS011;50527;52.414;13.226;2022-10-15T00:54:41;7.43;;;3.60;;
64208;SDS011;50527;52.414;13.226;2022-10-15T00:57:10;10.18;;;3.97;;
64208;SDS011;50527;52.414;13.226;2022-10-15T00:59:37;10.57;;;4.18;;
64208;SDS011;50527;52.414;13.226;2022-10-15T01:02:06;9.93;;;4.25;;
64208;SDS011;50527;52.414;13.226;2022-10-15T01:04:32;8.50;;;4.28;;
64208;SDS011;50527;52.414;13.226;2022-10-15T01:06:58;10.82;;;3.72;;
64208;SDS011;50527;52.414;13.226;2022-10-15T01:09:24;9.02;;;4.00;;
64208;SDS011;50527;52.414;13.226;2022-10-15T01:11:50;11.57;;;3.72;;
64208;SDS011;50527;52.414;13.226;2022-10-15T01:14:22;10.73;;;3.75;;
64208;SDS011;50527;52.414;13.226;2022-10-15T01:17:07;12.68;;;4.40;;
64208;SDS011;50527;52.414;13.226;2022-10-15T01:27:28;7.72;;;3.72;;
64208;SDS011;50527;52.414;13.226;2022-10-15T01:30:26;8.38;;;4.00;;
64208;SDS011;50527;52.414;13.226;2022-10-15T01:32:59;8.25;;;3.63;;
64208;SDS011;50527;52.414;13.226;2022-10-15T01:35:47;8.40;;;3.78;;
64208;SDS011;50527;52.414;13.226;2022-10-15T01:38:22;6.53;;;3.15;;
64208;SDS011;50527;52.414;13.226;2022-10-15T01:40:56;11.55;;;3.90;;
64208;SDS011;50527;52.414;13.226;2022-10-15T01:43:29;9.13;;;3.67;;
64208;SDS011;50527;52.414;13.226;2022-10-15T01:46:05;9.63;;;3.50;;
64208;SDS011;50527;52.414;13.226;2022-10-15T01:48:36;7.22;;;3.42;;
64208;SDS011;50527;52.414;13.226;2022-10-15T01:51:04;8.32;;;3.63;;
64208;SDS011;50527;52.414;13.226;2022-10-15T01:53:31;6.53;;;3.72;;
64208;SDS011;50527;52.414;13.226;2022-10-15T01:55:59;7.40;;;3.50;;
64208;SDS011;50527;52.414;13.226;2022-10-15T01:58:36;7.78;;;3.88;;
64208;SDS011;50527;52.414;13.226;2022-10-15T02:01:05;9.63;;;3.60;;
64208;SDS011;50527;52.414;13.226;2022-10-15T02:03:31;11.23;;;4.00;;
64208;SDS011;50527;52.414;13.226;2022-10-15T02:06:02;9.38;;;3.65;;
64208;SDS011;50527;52.414;13.226;2022-10-15T02:08:35;12.18;;;3.83;;
64208;SDS011;50527;52.414;13.226;2022-10-15T02:11:08;8.20;;;3.90;;
64208;SDS011;50527;52.414;13.226;2022-10-15T02:13:49;7.03;;;3.42;;
64208;SDS011;50527;52.414;13.226;2022-10-15T02:19:20;14.50;;;4.07;;
64208;SDS011;50527;52.414;13.226;2022-10-15T02:21:58;9.25;;;3.97;;
64208;SDS011;50527;52.414;13.226;2022-10-15T02:24:37;8.52;;;3.70;;
64208;SDS011;50527;52.414;13.226;2022-10-15T02:27:24;8.98;;;3.78;;
64208;SDS011;50527;52.414;13.226;2022-10-15T02:29:52;7.63;;;3.88;;
64208;SDS011;50527;52.414;13.226;2022-10-15T02:32:20;7.85;;;3.58;;
64208;SDS011;50527;52.414;13.226;2022-10-15T02:34:47;7.80;;;4.03;;
64208;SDS011;50527;52.414;13.226;2022-10-15T02:37:14;10.43;;;3.47;;
64208;SDS011;50527;52.414;13.226;2022-10-15T02:39:43;7.68;;;3.80;;
64208;SDS011;50527;52.414;13.226;2022-10-15T02:42:09;8.75;;;3.70;;
64208;SDS011;50527;52.414;13.226;2022-10-15T02:44:35;8.65;;;3.65;;
64208;SDS011;50527;52.414;13.226;2022-10-15T02:47:00;7.43;;;3.55;;
64208;SDS011;50527;52.414;13.226;2022-10-15T02:49:26;9.00;;;4.00;;
64208;SDS011;50527;52.414;13.226;2022-10-15T02:51:51;7.68;;;3.78;;
64208;SDS011;50527;52.414;13.226;2022-10-15T02:54:17;7.45;;;3.75;;
64208;SDS011;50527;52.414;13.226;2022-10-15T02:56:43;8.98;;;3.75;;
64208;SDS011;50527;52.414;13.226;2022-10-15T02:59:08;8.43;;;4.13;;
64208;SDS011;50527;52.414;13.226;2022-10-15T03:01:34;7.07;;;3.58;;
64208;SDS011;50527;52.414;13.226;2022-10-15T03:03:59;8.60;;;3.58;;
64208;SDS011;50527;52.414;13.226;2022-10-15T03:06:26;10.32;;;4.25;;
64208;SDS011;50527;52.414;13.226;2022-10-15T03:08:51;11.18;;;4.13;;
64208;SDS011;50527;52.414;13.226;2022-10-15T03:11:17;8.90;;;3.72;;
64208;SDS011;50527;52.414;13.226;2022-10-15T03:13:42;9.50;;;3.88;;
64208;SDS011;50527;52.414;13.226;2022-10-15T03:16:08;6.18;;;3.63;;
64208;SDS011;50527;52.414;13.226;2022-10-15T03:18:34;7.10;;;3.65;;
64208;SDS011;50527;52.414;13.226;2022-10-15T03:21:00;12.13;;;4.00;;
64208;SDS011;50527;52.414;13.226;2022-10-15T03:23:26;8.27;;;3.85;;
64208;SDS011;50527;52.414;13.226;2022-10-15T03:25:52;9.68;;;3.92;;
64208;SDS011;50527;52.414;13.226;2022-10-15T03:28:18;6.82;;;3.58;;
64208;SDS011;50527;52.414;13.226;2022-10-15T03:30:44;8.18;;;3.63;;
64208;SDS011;50527;52.414;13.226;2022-10-15T03:33:10;8.13;;;3.97;;
64208;SDS011;50527;52.414;13.226;2022-10-15T03:35:35;8.00;;;3.72;;
64208;SDS011;50527;52.414;13.226;2022-10-15T03:38:02;8.18;;;3.45;;
64208;SDS011;50527;52.414;13.226;2022-10-15T03:40:28;6.85;;;3.50;;
64208;SDS011;50527;52.414;13.226;2022-10-15T03:42:54;7.60;;;3.75;;
64208;SDS011;50527;52.414;13.226;2022-10-15T03:45:20;7.97;;;3.67;;
64208;SDS011;50527;52.414;13.226;2022-10-15T03:47:46;6.72;;;3.83;;
64208;SDS011;50527;52.414;13.226;2022-10-15T03:50:12;8.57;;;3.75;;
64208;SDS011;50527;52.414;13.226;2022-10-15T03:52:38;6.05;;;3.13;;
64208;SDS011;50527;52.414;13.226;2022-10-15T03:55:04;7.15;;;3.53;;
64208;SDS011;50527;52.414;13.226;2022-10-15T03:57:31;9.68;;;3.38;;
64208;SDS011;50527;52.414;13.226;2022-10-15T03:59:57;6.47;;;3.03;;
64208;SDS011;50527;52.414;13.226;2022-10-15T04:02:22;8.60;;;3.80;;
64208;SDS011;50527;52.414;13.226;2022-10-15T04:04:50;9.43;;;3.72;;
64208;SDS011;50527;52.414;13.226;2022-10-15T04:07:17;8.88;;;4.13;;
64208;SDS011;50527;52.414;13.226;2022-10-15T04:09:43;7.45;;;3.78;;
64208;SDS011;50527;52.414;13.226;2022-10-15T04:12:08;8.43;;;3.30;;
64208;SDS011;50527;52.414;13.226;2022-10-15T04:14:34;9.60;;;3.60;;
64208;SDS011;50527;52.414;13.226;2022-10-15T04:17:00;6.40;;;3.70;;
64208;SDS011;50527;52.414;13.226;2022-10-15T04:19:25;6.05;;;3.67;;
64208;SDS011;50527;52.414;13.226;2022-10-15T04:21:51;8.93;;;3.58;;
64208;SDS011;50527;52.414;13.226;2022-10-15T04:24:16;8.77;;;3.50;;
64208;SDS011;50527;52.414;13.226;2022-10-15T04:26:42;7.28;;;3.50;;
64208;SDS011;50527;52.414;13.226;2022-10-15T04:29:07;10.18;;;3.80;;
64208;SDS011;50527;52.414;13.226;2022-10-15T04:31:33;7.97;;;3.75;;
64208;SDS011;50527;52.414;13.226;2022-10-15T04:33:58;8.35;;;3.33;;
64208;SDS011;50527;52.414;13.226;2022-10-15T04:36:24;6.90;;;3.45;;
64208;SDS011;50527;52.414;13.226;2022-10-15T04:38:49;6.25;;;3.10;;
64208;SDS011;50527;52.414;13.226;2022-10-15T04:41:16;8.43;;;3.40;;
64208;SDS011;50527;52.414;13.226;2022-10-15T04:43:41;7.88;;;3.83;;
64208;SDS011;50527;52.414;13.226;2022-10-15T04:46:07;7.38;;;3.58;;
64208;SDS011;50527;52.414;13.226;2022-10-15T04:48:34;11.93;;;3.47;;
64208;SDS011;50527;52.414;13.226;2022-10-15T04:51:04;7.40;;;3.63;;
64208;SDS011;50527;52.414;13.226;2022-10-15T04:53:34;8.93;;;3.80;;
64208;SDS011;50527;52.414;13.226;2022-10-15T04:56:04;6.80;;;3.60;;
64208;SDS011;50527;52.414;13.226;2022-10-15T04:58:31;8.75;;;3.60;;
64208;SDS011;50527;52.414;13.226;2022-10-15T05:00:59;7.90;;;3.50;;
64208;SDS011;50527;52.414;13.226;2022-10-15T05:03:25;9.02;;;3.55;;
64208;SDS011;50527;52.414;13.226;2022-10-15T05:05:51;7.18;;;3.67;;
64208;SDS011;50527;52.414;13.226;2022-10-15T05:08:16;6.18;;;3.25;;
64208;SDS011;50527;52.414;13.226;2022-10-15T05:10:42;6.93;;;3.22;;
64208;SDS011;50527;52.414;13.226;2022-10-15T05:13:07;10.02;;;3.90;;
64208;SDS011;50527;52.414;13.226;2022-10-15T05:15:33;6.32;;;3.33;;
64208;SDS011;50527;52.414;13.226;2022-10-15T05:17:59;7.25;;;3.28;;
64208;SDS011;50527;52.414;13.226;2022-10-15T05:20:25;7.38;;;3.17;;
64208;SDS011;50527;52.414;13.226;2022-10-15T05:22:50;6.35;;;3.25;;
64208;SDS011;50527;52.414;13.226;2022-10-15T05:25:15;7.18;;;3.15;;
64208;SDS011;50527;52.414;13.226;2022-10-15T05:27:41;6.32;;;3.22;;
64208;SDS011;50527;52.414;13.226;2022-10-15T05:30:06;5.85;;;2.90;;
64208;SDS011;50527;52.414;13.226;2022-10-15T05:32:33;7.18;;;3.13;;
64208;SDS011;50527;52.414;13.226;2022-10-15T05:34:58;6.15;;;3.15;;
64208;SDS011;50527;52.414;13.226;2022-10-15T05:37:24;5.68;;;2.90;;
64208;SDS011;50527;52.414;13.226;2022-10-15T05:39:49;6.97;;;3.28;;
64208;SDS011;50527;52.414;13.226;2022-10-15T05:42:14;7.97;;;3.40;;
64208;SDS011;50527;52.414;13.226;2022-10-15T05:44:40;7.75;;;3.60;;
64208;SDS011;50527;52.414;13.226;2022-10-15T05:47:05;8.77;;;3.70;;
64208;SDS011;50527;52.414;13.226;2022-10-15T05:49:35;7.55;;;3.90;;
64208;SDS011;50527;52.414;13.226;2022-10-15T05:52:01;7.05;;;3.75;;
64208;SDS011;50527;52.414;13.226;2022-10-15T05:54:26;6.45;;;3.53;;
64208;SDS011;50527;52.414;13.226;2022-10-15T05:56:52;8.85;;;3.75;;
64208;SDS011;50527;52.414;13.226;2022-10-15T05:59:17;9.57;;;3.72;;
64208;SDS011;50527;52.414;13.226;2022-10-15T06:01:43;7.53;;;3.55;;
64208;SDS011;50527;52.414;13.226;2022-10-15T06:04:08;11.10;;;3.15;;
64208;SDS011;50527;52.414;13.226;2022-10-15T06:06:34;7.55;;;3.50;;
64208;SDS011;50527;52.414;13.226;2022-10-15T06:09:00;12.07;;;3.90;;
64208;SDS011;50527;52.414;13.226;2022-10-15T06:11:25;7.78;;;3.53;;
64208;SDS011;50527;52.414;13.226;2022-10-15T06:13:51;8.30;;;3.47;;
64208;SDS011;50527;52.414;13.226;2022-10-15T06:16:17;9.45;;;3.60;;
64208;SDS011;50527;52.414;13.226;2022-10-15T06:18:43;7.93;;;3.40;;
64208;SDS011;50527;52.414;13.226;2022-10-15T06:21:08;7.68;;;3.60;;
64208;SDS011;50527;52.414;13.226;2022-10-15T06:23:35;6.05;;;3.10;;
64208;SDS011;50527;52.414;13.226;2022-10-15T06:26:02;5.82;;;3.08;;
64208;SDS011;50527;52.414;13.226;2022-10-15T06:28:28;11.15;;;3.75;;
64208;SDS011;50527;52.414;13.226;2022-10-15T06:30:56;7.90;;;3.58;;
64208;SDS011;50527;52.414;13.226;2022-10-15T06:33:22;8.27;;;3.60;;
64208;SDS011;50527;52.414;13.226;2022-10-15T06:35:48;6.65;;;3.17;;
64208;SDS011;50527;52.414;13.226;2022-10-15T06:38:13;8.23;;;3.35;;
64208;SDS011;50527;52.414;13.226;2022-10-15T06:40:39;6.45;;;3.13;;
64208;SDS011;50527;52.414;13.226;2022-10-15T06:43:08;6.57;;;3.10;;
64208;SDS011;50527;52.414;13.226;2022-10-15T06:45:38;8.50;;;3.17;;
64208;SDS011;50527;52.414;13.226;2022-10-15T06:48:06;6.47;;;3.35;;
64208;SDS011;50527;52.414;13.226;2022-10-15T06:53:01;6.55;;;2.92;;
64208;SDS011;50527;52.414;13.226;2022-10-15T06:55:27;7.30;;;3.08;;
64208;SDS011;50527;52.414;13.226;2022-10-15T06:57:53;4.50;;;2.45;;
64208;SDS011;50527;52.414;13.226;2022-10-15T07:00:19;6.57;;;3.25;;
64208;SDS011;50527;52.414;13.226;2022-10-15T07:02:44;5.57;;;3.00;;
64208;SDS011;50527;52.414;13.226;2022-10-15T07:05:10;6.90;;;3.15;;
64208;SDS011;50527;52.414;13.226;2022-10-15T07:07:35;5.95;;;2.80;;
64208;SDS011;50527;52.414;13.226;2022-10-15T07:10:01;8.40;;;3.45;;
64208;SDS011;50527;52.414;13.226;2022-10-15T07:12:26;6.55;;;2.83;;
64208;SDS011;50527;52.414;13.226;2022-10-15T07:14:52;8.82;;;3.17;;
64208;SDS011;50527;52.414;13.226;2022-10-15T07:17:17;7.80;;;3.03;;
64208;SDS011;50527;52.414;13.226;2022-10-15T07:19:43;7.72;;;3.20;;
64208;SDS011;50527;52.414;13.226;2022-10-15T07:22:09;7.75;;;3.38;;
64208;SDS011;50527;52.414;13.226;2022-10-15T07:24:35;8.23;;;3.40;;
64208;SDS011;50527;52.414;13.226;2022-10-15T07:27:00;5.22;;;2.85;;
64208;SDS011;50527;52.414;13.226;2022-10-15T07:29:27;6.50;;;3.20;;
64208;SDS011;50527;52.414;13.226;2022-10-15T07:31:52;6.28;;;3.42;;
64208;SDS011;50527;52.414;13.226;2022-10-15T07:34:17;9.50;;;3.28;;
64208;SDS011;50527;52.414;13.226;2022-10-15T07:36:43;6.25;;;3.25;;
64208;SDS011;50527;52.414;13.226;2022-10-15T07:39:09;6.50;;;2.97;;
64208;SDS011;50527;52.414;13.226;2022-10-15T07:41:34;8.27;;;3.08;;
64208;SDS011;50527;52.414;13.226;2022-10-15T07:44:00;5.57;;;3.25;;
64208;SDS011;50527;52.414;13.226;2022-10-15T07:46:25;6.28;;;3.03;;
64208;SDS011;50527;52.414;13.226;2022-10-15T07:48:51;4.55;;;2.67;;
64208;SDS011;50527;52.414;13.226;2022-10-15T07:51:16;5.30;;;2.53;;
64208;SDS011;50527;52.414;13.226;2022-10-15T07:53:42;6.28;;;2.78;;
64208;SDS011;50527;52.414;13.226;2022-10-15T07:56:09;7.90;;;2.80;;
64208;SDS011;50527;52.414;13.226;2022-10-15T07:58:36;4.60;;;2.67;;
64208;SDS011;50527;52.414;13.226;2022-10-15T08:01:03;5.50;;;2.65;;
64208;SDS011;50527;52.414;13.226;2022-10-15T08:03:30;6.50;;;2.75;;
64208;SDS011;50527;52.414;13.226;2022-10-15T08:05:56;7.57;;;2.22;;
64208;SDS011;50527;52.414;13.226;2022-10-15T08:08:24;6.60;;;2.58;;
64208;SDS011;50527;52.414;13.226;2022-10-15T08:10:50;4.15;;;2.30;;
64208;SDS011;50527;52.414;13.226;2022-10-15T08:13:15;5.63;;;2.80;;
64208;SDS011;50527;52.414;13.226;2022-10-15T08:15:41;5.75;;;2.40;;
64208;SDS011;50527;52.414;13.226;2022-10-15T08:18:07;4.97;;;2.42;;
64208;SDS011;50527;52.414;13.226;2022-10-15T08:20:34;5.22;;;2.47;;
64208;SDS011;50527;52.414;13.226;2022-10-15T08:23:03;5.03;;;2.20;;
64208;SDS011;50527;52.414;13.226;2022-10-15T08:25:28;4.20;;;2.00;;
64208;SDS011;50527;52.414;13.226;2022-10-15T08:27:56;4.47;;;2.33;;
64208;SDS011;50527;52.414;13.226;2022-10-15T08:30:21;5.90;;;2.45;;
64208;SDS011;50527;52.414;13.226;2022-10-15T08:32:46;3.40;;;1.83;;
64208;SDS011;50527;52.414;13.226;2022-10-15T08:35:12;3.78;;;1.90;;
64208;SDS011;50527;52.414;13.226;2022-10-15T08:37:37;5.72;;;2.00;;
64208;SDS011;50527;52.414;13.226;2022-10-15T08:40:03;4.07;;;2.15;;
64208;SDS011;50527;52.414;13.226;2022-10-15T08:42:35;3.58;;;1.90;;
64208;SDS011;50527;52.414;13.226;2022-10-15T08:45:04;3.17;;;1.58;;
64208;SDS011;50527;52.414;13.226;2022-10-15T08:47:49;4.35;;;1.42;;
64208;SDS011;50527;52.414;13.226;2022-10-15T08:53:19;4.00;;;1.63;;
64208;SDS011;50527;52.414;13.226;2022-10-15T08:55:47;4.32;;;2.05;;
64208;SDS011;50527;52.414;13.226;2022-10-15T09:03:26;4.68;;;1.70;;
64208;SDS011;50527;52.414;13.226;2022-10-15T09:14:01;4.53;;;1.67;;
64208;SDS011;50527;52.414;13.226;2022-10-15T09:16:31;3.65;;;1.65;;
64208;SDS011;50527;52.414;13.226;2022-10-15T09:19:00;4.05;;;1.40;;
64208;SDS011;50527;52.414;13.226;2022-10-15T09:21:29;3.42;;;1.60;;
64208;SDS011;50527;52.414;13.226;2022-10-15T09:24:02;3.65;;;1.52;;
64208;SDS011;50527;52.414;13.226;2022-10-15T09:26:34;4.05;;;1.80;;
64208;SDS011;50527;52.414;13.226;2022-10-15T09:29:32;6.28;;;1.80;;
64208;SDS011;50527;52.414;13.226;2022-10-15T09:32:22;5.65;;;1.63;;
64208;SDS011;50527;52.414;13.226;2022-10-15T09:35:21;2.72;;;1.35;;
64208;SDS011;50527;52.414;13.226;2022-10-15T09:38:00;5.43;;;1.70;;
64208;SDS011;50527;52.414;13.226;2022-10-15T09:40:51;3.45;;;1.65;;
64208;SDS011;50527;52.414;13.226;2022-10-15T09:43:42;5.40;;;1.70;;
64208;SDS011;50527;52.414;13.226;2022-10-15T09:46:10;5.32;;;1.60;;
64208;SDS011;50527;52.414;13.226;2022-10-15T09:48:40;5.22;;;1.77;;
64208;SDS011;50527;52.414;13.226;2022-10-15T09:51:27;5.30;;;1.70;;
64208;SDS011;50527;52.414;13.226;2022-10-15T09:54:03;2.58;;;1.50;;
64208;SDS011;50527;52.414;13.226;2022-10-15T09:56:53;3.95;;;1.70;;
64208;SDS011;50527;52.414;13.226;2022-10-15T09:59:21;3.40;;;1.60;;
64208;SDS011;50527;52.414;13.226;2022-10-15T10:01:55;3.00;;;1.58;;
64208;SDS011;50527;52.414;13.226;2022-10-15T10:04:23;6.43;;;1.88;;
64208;SDS011;50527;52.414;13.226;2022-10-15T10:06:53;3.95;;;2.05;;
64208;SDS011;50527;52.414;13.226;2022-10-15T10:09:22;2.53;;;1.73;;
64208;SDS011;50527;52.414;13.226;2022-10-15T10:11:52;5.30;;;1.90;;
64208;SDS011;50527;52.414;13.226;2022-10-15T10:14:42;6.78;;;1.90;;
64208;SDS011;50527;52.414;13.226;2022-10-15T10:17:19;3.00;;;1.65;;
64208;SDS011;50527;52.414;13.226;2022-10-15T10:22:47;2.63;;;1.70;;
64208;SDS011;50527;52.414;13.226;2022-10-15T10:25:22;4.32;;;1.60;;
64208;SDS011;50527;52.414;13.226;2022-10-15T10:27:56;2.97;;;1.30;;
64208;SDS011;50527;52.414;13.226;2022-10-15T10:30:31;2.83;;;1.58;;
64208;SDS011;50527;52.414;13.226;2022-10-15T10:33:01;4.43;;;1.65;;
64208;SDS011;50527;52.414;13.226;2022-10-15T10:35:33;4.00;;;1.48;;
64208;SDS011;50527;52.414;13.226;2022-10-15T10:38:17;3.10;;;1.58;;
64208;SDS011;50527;52.414;13.226;2022-10-15T10:40:58;4.32;;;1.38;;
64208;SDS011;50527;52.414;13.226;2022-10-15T10:43:31;2.17;;;1.27;;
64208;SDS011;50527;52.414;13.226;2022-10-15T10:48:42;3.05;;;1.48;;
64208;SDS011;50527;52.414;13.226;2022-10-15T10:51:11;2.65;;;1.27;;
64208;SDS011;50527;52.414;13.226;2022-10-15T10:53:41;3.47;;;1.30;;
64208;SDS011;50527;52.414;13.226;2022-10-15T10:56:14;3.00;;;1.35;;
64208;SDS011;50527;52.414;13.226;2022-10-15T10:58:44;2.03;;;1.10;;
64208;SDS011;50527;52.414;13.226;2022-10-15T11:01:10;2.08;;;1.10;;
64208;SDS011;50527;52.414;13.226;2022-10-15T11:03:38;2.55;;;1.10;;
64208;SDS011;50527;52.414;13.226;2022-10-15T11:14:31;1.83;;;1.10;;
64208;SDS011;50527;52.414;13.226;2022-10-15T11:20:19;1.73;;;1.00;;
64208;SDS011;50527;52.414;13.226;2022-10-15T11:23:01;2.60;;;1.10;;
64208;SDS011;50527;52.414;13.226;2022-10-15T11:31:50;2.15;;;1.15;;
64208;SDS011;50527;52.414;13.226;2022-10-15T11:42:29;2.17;;;1.00;;
64208;SDS011;50527;52.414;13.226;2022-10-15T11:47:56;2.33;;;1.25;;
64208;SDS011;50527;52.414;13.226;2022-10-15T11:55:38;1.98;;;1.10;;
64208;SDS011;50527;52.414;13.226;2022-10-15T11:58:15;1.60;;;0.88;;
64208;SDS011;50527;52.414;13.226;2022-10-15T12:01:15;3.50;;;1.00;;
64208;SDS011;50527;52.414;13.226;2022-10-15T12:03:50;2.72;;;0.98;;
64208;SDS011;50527;52.414;13.226;2022-10-15T12:06:28;1.30;;;0.70;;
64208;SDS011;50527;52.414;13.226;2022-10-15T12:08:59;3.05;;;0.82;;
64208;SDS011;50527;52.414;13.226;2022-10-15T12:11:35;1.52;;;0.80;;
64208;SDS011;50527;52.414;13.226;2022-10-15T12:14:27;1.85;;;0.90;;
64208;SDS011;50527;52.414;13.226;2022-10-15T12:17:03;3.20;;;0.93;;
64208;SDS011;50527;52.414;13.226;2022-10-15T12:19:45;1.48;;;0.80;;
64208;SDS011;50527;52.414;13.226;2022-10-15T12:22:12;5.53;;;0.80;;
64208;SDS011;50527;52.414;13.226;2022-10-15T12:24:59;1.13;;;0.70;;
64208;SDS011;50527;52.414;13.226;2022-10-15T12:27:26;2.05;;;0.70;;
64208;SDS011;50527;52.414;13.226;2022-10-15T12:32:24;1.30;;;0.68;;
64208;SDS011;50527;52.414;13.226;2022-10-15T12:34:56;0.70;;;0.60;;
64208;SDS011;50527;52.414;13.226;2022-10-15T12:37:24;2.33;;;0.77;;
64208;SDS011;50527;52.414;13.226;2022-10-15T12:39:56;2.90;;;0.80;;
64208;SDS011;50527;52.414;13.226;2022-10-15T12:42:30;1.95;;;0.68;;
64208;SDS011;50527;52.414;13.226;2022-10-15T12:44:59;1.17;;;0.60;;
64208;SDS011;50527;52.414;13.226;2022-10-15T12:50:26;2.38;;;0.60;;
64208;SDS011;50527;52.414;13.226;2022-10-15T12:52:59;1.15;;;0.60;;
64208;SDS011;50527;52.414;13.226;2022-10-15T12:55:32;2.22;;;0.70;;
64208;SDS011;50527;52.414;13.226;2022-10-15T13:00:50;2.65;;;0.60;;
64208;SDS011;50527;52.414;13.226;2022-10-15T13:03:17;1.08;;;0.52;;
64208;SDS011;50527;52.414;13.226;2022-10-15T13:05:54;1.33;;;0.73;;
64208;SDS011;50527;52.414;13.226;2022-10-15T13:08:36;2.30;;;0.70;;
64208;SDS011;50527;52.414;13.226;2022-10-15T13:13:42;2.15;;;0.50;;
64208;SDS011;50527;52.414;13.226;2022-10-15T13:16:10;1.90;;;0.80;;
64208;SDS011;50527;52.414;13.226;2022-10-15T13:18:38;2.30;;;0.55;;
64208;SDS011;50527;52.414;13.226;2022-10-15T13:21:07;1.70;;;0.57;;
64208;SDS011;50527;52.414;13.226;2022-10-15T13:23:33;1.83;;;0.70;;
64208;SDS011;50527;52.414;13.226;2022-10-15T13:26:16;1.13;;;0.60;;
64208;SDS011;50527;52.414;13.226;2022-10-15T13:28:42;1.25;;;0.63;;
64208;SDS011;50527;52.414;13.226;2022-10-15T13:31:13;4.63;;;0.63;;
64208;SDS011;50527;52.414;13.226;2022-10-15T13:33:44;1.88;;;0.70;;
64208;SDS011;50527;52.414;13.226;2022-10-15T13:36:16;1.23;;;0.55;;
64208;SDS011;50527;52.414;13.226;2022-10-15T13:38:44;1.30;;;0.65;;
64208;SDS011;50527;52.414;13.226;2022-10-15T13:41:27;4.78;;;0.88;;
64208;SDS011;50527;52.414;13.226;2022-10-15T13:43:55;2.77;;;0.53;;
64208;SDS011;50527;52.414;13.226;2022-10-15T13:46:35;1.60;;;0.80;;
64208;SDS011;50527;52.414;13.226;2022-10-15T13:49:07;1.40;;;0.65;;
64208;SDS011;50527;52.414;13.226;2022-10-15T13:51:42;2.00;;;0.60;;
64208;SDS011;50527;52.414;13.226;2022-10-15T13:54:11;1.33;;;0.50;;
64208;SDS011;50527;52.414;13.226;2022-10-15T13:56:42;1.27;;;0.70;;
64208;SDS011;50527;52.414;13.226;2022-10-15T13:59:14;1.33;;;0.70;;
64208;SDS011;50527;52.414;13.226;2022-10-15T14:01:47;1.25;;;0.65;;
64208;SDS011;50527;52.414;13.226;2022-10-15T14:04:20;1.42;;;0.50;;
64208;SDS011;50527;52.414;13.226;2022-10-15T14:07:00;0.43;;;0.35;;
64208;SDS011;50527;52.414;13.226;2022-10-15T14:09:28;2.25;;;0.70;;
64208;SDS011;50527;52.414;13.226;2022-10-15T14:11:57;2.67;;;0.60;;
64208;SDS011;50527;52.414;13.226;2022-10-15T14:14:33;1.10;;;0.65;;
64208;SDS011;50527;52.414;13.226;2022-10-15T14:17:07;0.70;;;0.52;;
64208;SDS011;50527;52.414;13.226;2022-10-15T14:19:43;4.57;;;2.35;;
64208;SDS011;50527;52.414;13.226;2022-10-15T14:22:16;3.58;;;0.45;;
64208;SDS011;50527;52.414;13.226;2022-10-15T14:24:49;3.13;;;1.20;;
64208;SDS011;50527;52.414;13.226;2022-10-15T14:27:17;1.40;;;0.50;;
64208;SDS011;50527;52.414;13.226;2022-10-15T14:29:46;2.50;;;0.50;;
64208;SDS011;50527;52.414;13.226;2022-10-15T14:34:48;3.05;;;0.70;;
64208;SDS011;50527;52.414;13.226;2022-10-15T14:37:28;2.95;;;0.88;;
64208;SDS011;50527;52.414;13.226;2022-10-15T14:40:08;3.95;;;0.98;;
64208;SDS011;50527;52.414;13.226;2022-10-15T14:42:47;0.98;;;0.50;;
64208;SDS011;50527;52.414;13.226;2022-10-15T14:45:29;1.58;;;0.50;;
64208;SDS011;50527;52.414;13.226;2022-10-15T14:48:16;1.77;;;0.52;;
64208;SDS011;50527;52.414;13.226;2022-10-15T14:50:44;1.40;;;0.70;;
64208;SDS011;50527;52.414;13.226;2022-10-15T14:53:15;2.72;;;0.85;;
64208;SDS011;50527;52.414;13.226;2022-10-15T14:55:47;0.60;;;0.40;;
64208;SDS011;50527;52.414;13.226;2022-10-15T14:58:17;3.78;;;0.80;;
64208;SDS011;50527;52.414;13.226;2022-10-15T15:00:45;1.63;;;0.60;;
64208;SDS011;50527;52.414;13.226;2022-10-15T15:03:16;3.42;;;0.60;;
64208;SDS011;50527;52.414;13.226;2022-10-15T15:05:50;1.10;;;0.40;;
64208;SDS011;50527;52.414;13.226;2022-10-15T15:08:17;2.40;;;0.60;;
64208;SDS011;50527;52.414;13.226;2022-10-15T15:10:43;1.42;;;0.52;;
64208;SDS011;50527;52.414;13.226;2022-10-15T15:13:18;2.45;;;0.40;;
64208;SDS011;50527;52.414;13.226;2022-10-15T15:15:46;1.10;;;0.50;;
64208;SDS011;50527;52.414;13.226;2022-10-15T15:18:12;0.93;;;0.43;;
64208;SDS011;50527;52.414;13.226;2022-10-15T15:20:39;2.42;;;0.45;;
64208;SDS011;50527;52.414;13.226;2022-10-15T15:23:05;1.17;;;0.50;;
64208;SDS011;50527;52.414;13.226;2022-10-15T15:25:33;4.75;;;0.50;;
64208;SDS011;50527;52.414;13.226;2022-10-15T15:28:00;0.43;;;0.40;;
64208;SDS011;50527;52.414;13.226;2022-10-15T15:30:27;0.73;;;0.40;;
64208;SDS011;50527;52.414;13.226;2022-10-15T15:32:55;3.42;;;0.50;;
64208;SDS011;50527;52.414;13.226;2022-10-15T15:35:22;2.67;;;0.30;;
64208;SDS011;50527;52.414;13.226;2022-10-15T15:38:03;1.10;;;0.30;;
64208;SDS011;50527;52.414;13.226;2022-10-15T15:40:32;1.65;;;0.52;;
64208;SDS011;50527;52.414;13.226;2022-10-15T15:42:58;3.33;;;0.88;;
64208;SDS011;50527;52.414;13.226;2022-10-15T15:45:24;5.55;;;0.80;;
64208;SDS011;50527;52.414;13.226;2022-10-15T15:47:51;1.60;;;0.80;;
64208;SDS011;50527;52.414;13.226;2022-10-15T15:50:17;5.38;;;0.85;;
64208;SDS011;50527;52.414;13.226;2022-10-15T15:52:44;2.85;;;0.70;;
64208;SDS011;50527;52.414;13.226;2022-10-15T15:55:10;2.03;;;0.70;;
64208;SDS011;50527;52.414;13.226;2022-10-15T15:57:36;2.90;;;0.82;;
64208;SDS011;50527;52.414;13.226;2022-10-15T16:00:02;4.30;;;0.98;;
64208;SDS011;50527;52.414;13.226;2022-10-15T16:02:32;4.55;;;1.15;;
64208;SDS011;50527;52.414;13.226;2022-10-15T16:04:58;2.25;;;1.00;;
64208;SDS011;50527;52.414;13.226;2022-10-15T16:07:25;2.00;;;0.68;;
64208;SDS011;50527;52.414;13.226;2022-10-15T16:09:51;1.50;;;0.73;;
64208;SDS011;50527;52.414;13.226;2022-10-15T16:12:17;3.20;;;1.10;;